Winchester, Nevada
Current Conditions -  °F | °C
As of 1:56 AM on Monday 22 Dec 2014 (Local Time) from KLAS Reporting Station
Broken Clouds Broken Clouds  
Wind Chill: 44°   Ceiling: 25000
Heat Index: 47°   Visibility: 10mi
Dew Point: 39°   Wind: 6mph
Humidity: 74%   Direction: 220°SW
Pressure: 30.05"   Gusts: NA
Location:  36.13°N, 115.11°W
Report Text: KLAS 220956Z 22005KT 10SM BKN250 08/04 A3005 RMK AO2 SLP174 T00830039 $
Loading
Personal Weather Stations






























Interactive Weather Map New forecast layout! Learn more

10-Day Weather Forecast

Advertisements
Track Severe Weather on mobile